createdAt,value
2023-12-20T00:00:50.481Z,95147.00
2023-12-20T00:01:50.573Z,95145.00
2023-12-20T00:02:50.498Z,95145.00
2023-12-20T00:03:50.585Z,95144.00
2023-12-20T00:04:50.793Z,95140.00
2023-12-20T00:05:50.641Z,95140.00
2023-12-20T00:06:50.831Z,95138.00
2023-12-20T00:07:51.149Z,95134.00
2023-12-20T00:08:50.689Z,95136.00
2023-12-20T00:09:50.758Z,95137.00
2023-12-20T00:10:50.790Z,95137.00
2023-12-20T00:11:50.824Z,95136.00
2023-12-20T00:12:50.980Z,95136.00
2023-12-20T00:13:52.038Z,95135.00
2023-12-20T00:14:50.947Z,95134.00
2023-12-20T00:15:51.039Z,95130.00
2023-12-20T00:16:50.965Z,95128.00
2023-12-20T00:17:51.020Z,95128.00
2023-12-20T00:18:51.024Z,95129.00
2023-12-20T00:19:51.157Z,95130.00
2023-12-20T00:20:51.070Z,95129.00
2023-12-20T00:21:51.106Z,95130.00
2023-12-20T00:22:51.101Z,95131.00
2023-12-20T00:23:51.084Z,95132.00
2023-12-20T00:24:51.165Z,95133.00
2023-12-20T00:25:51.136Z,95133.00
2023-12-20T00:26:51.119Z,95134.00
2023-12-20T00:27:51.201Z,95130.00
2023-12-20T00:28:51.153Z,95131.00
2023-12-20T00:29:51.154Z,95129.00
2023-12-20T00:30:51.236Z,95130.00
2023-12-20T00:31:51.332Z,95131.00
2023-12-20T00:32:51.220Z,95131.00
2023-12-20T00:33:51.605Z,95129.00
2023-12-20T00:34:51.279Z,95129.00
2023-12-20T00:35:51.184Z,95127.00
2023-12-20T00:36:51.300Z,95127.00
2023-12-20T00:37:51.209Z,95127.00
2023-12-20T00:38:51.292Z,95128.00
2023-12-20T00:39:51.306Z,95128.00
2023-12-20T00:40:51.297Z,95124.00
2023-12-20T00:41:51.286Z,95125.00
2023-12-20T00:42:51.274Z,95123.00
2023-12-20T00:43:51.259Z,95126.00
2023-12-20T00:44:51.345Z,95126.00
2023-12-20T00:45:51.291Z,95126.00
2023-12-20T00:46:51.972Z,95126.00
2023-12-20T00:47:51.812Z,95125.00
2023-12-20T00:48:51.271Z,95123.00
2023-12-20T00:49:51.341Z,95121.00
2023-12-20T00:50:51.323Z,95119.00
2023-12-20T00:51:51.413Z,95116.00
2023-12-20T00:52:51.379Z,95115.00
2023-12-20T00:53:51.367Z,95116.00
2023-12-20T00:54:51.534Z,95120.00
2023-12-20T00:55:51.421Z,95122.00
2023-12-20T00:56:51.441Z,95124.00
2023-12-20T00:57:51.549Z,95128.00
2023-12-20T00:58:51.492Z,95129.00
2023-12-20T00:59:51.553Z,95129.00
2023-12-20T01:00:51.669Z,95130.00
2023-12-20T01:01:51.764Z,95131.00
2023-12-20T01:02:51.682Z,95129.00
2023-12-20T01:03:51.796Z,95131.00
2023-12-20T01:04:51.879Z,95134.00
2023-12-20T01:05:51.895Z,95135.00
2023-12-20T01:06:52.004Z,95137.00
2023-12-20T01:07:52.005Z,95138.00
2023-12-20T01:08:52.059Z,95138.00
2023-12-20T01:09:52.222Z,95138.00
2023-12-20T01:10:52.208Z,95137.00
2023-12-20T01:11:52.315Z,95136.00
2023-12-20T01:12:52.422Z,95137.00
2023-12-20T01:13:52.438Z,95138.00
2023-12-20T01:14:52.540Z,95137.00
2023-12-20T01:15:52.580Z,95136.00
2023-12-20T01:16:52.636Z,95135.00
2023-12-20T01:17:52.747Z,95135.00
2023-12-20T01:18:52.906Z,95135.00
2023-12-20T01:19:52.930Z,95132.00
2023-12-20T01:20:52.881Z,95135.00
2023-12-20T01:21:53.002Z,95136.00
2023-12-20T01:22:53.038Z,95137.00
2023-12-20T01:23:53.093Z,95135.00
2023-12-20T01:24:53.230Z,95136.00
2023-12-20T01:25:53.233Z,95133.00
2023-12-20T01:26:53.367Z,95132.00
2023-12-20T01:27:53.379Z,95131.00
2023-12-20T01:28:53.437Z,95128.00
2023-12-20T01:29:53.517Z,95127.00
2023-12-20T01:30:53.640Z,95128.00
2023-12-20T01:31:53.669Z,95125.00
2023-12-20T01:32:53.722Z,95126.00
2023-12-20T01:33:53.791Z,95122.00
2023-12-20T01:34:53.909Z,95122.00
2023-12-20T01:35:53.906Z,95122.00
2023-12-20T01:36:54.000Z,95124.00
2023-12-20T01:37:53.986Z,95124.00
2023-12-20T01:38:54.088Z,95117.00
2023-12-20T01:39:54.179Z,95116.00
2023-12-20T01:40:54.189Z,95111.00
2023-12-20T01:41:54.291Z,95109.00
2023-12-20T01:42:54.319Z,95105.00
2023-12-20T01:43:54.462Z,95104.00
2023-12-20T01:44:54.503Z,95105.00
2023-12-20T01:45:54.549Z,95105.00
2023-12-20T01:46:54.552Z,95105.00
2023-12-20T01:47:54.616Z,95100.00
2023-12-20T01:48:54.731Z,95097.00
2023-12-20T01:49:54.794Z,95092.00
2023-12-20T01:50:54.766Z,95093.00
2023-12-20T01:51:54.870Z,95093.00
2023-12-20T01:52:54.900Z,95091.00
2023-12-20T01:53:54.967Z,95089.00
2023-12-20T01:54:55.038Z,95086.00
2023-12-20T01:55:55.063Z,95086.00
2023-12-20T01:56:55.080Z,95084.00
2023-12-20T01:57:55.209Z,95083.00
2023-12-20T01:58:55.842Z,95082.00
2023-12-20T01:59:55.319Z,95076.00
2023-12-20T02:00:55.436Z,95072.00
2023-12-20T02:01:55.506Z,95069.00
2023-12-20T02:02:55.427Z,95069.00
2023-12-20T02:03:55.569Z,95066.00
2023-12-20T02:04:56.008Z,95062.00
2023-12-20T02:05:55.607Z,95054.00
2023-12-20T02:06:55.704Z,95050.00
2023-12-20T02:07:55.801Z,95044.00
2023-12-20T02:08:55.791Z,95042.00
2023-12-20T02:09:55.835Z,95039.00
2023-12-20T02:10:55.838Z,95039.00
2023-12-20T02:11:55.906Z,95036.00
2023-12-20T02:12:56.014Z,95034.00
2023-12-20T02:13:56.015Z,95030.00
2023-12-20T02:14:56.061Z,95029.00
2023-12-20T02:15:56.211Z,95023.00
2023-12-20T02:16:56.154Z,95022.00
2023-12-20T02:17:56.242Z,95016.00
2023-12-20T02:18:56.338Z,95012.00
2023-12-20T02:19:56.600Z,95009.00
2023-12-20T02:20:56.384Z,95007.00
2023-12-20T02:21:56.434Z,95002.00
2023-12-20T02:22:56.494Z,95001.00
2023-12-20T02:23:56.545Z,94996.00
2023-12-20T02:24:56.650Z,94991.00
2023-12-20T02:25:56.610Z,94986.00
2023-12-20T02:26:56.685Z,94981.00
2023-12-20T02:27:56.739Z,94978.00
2023-12-20T02:28:56.784Z,94974.00
2023-12-20T02:29:56.876Z,94973.00
2023-12-20T02:30:56.930Z,94976.00
2023-12-20T02:31:56.984Z,94974.00
2023-12-20T02:32:57.010Z,94969.00
2023-12-20T02:33:57.222Z,94964.00
2023-12-20T02:34:57.222Z,94958.00
2023-12-20T02:35:57.096Z,94956.00
2023-12-20T02:36:57.166Z,94957.00
2023-12-20T02:37:57.201Z,94957.00
2023-12-20T02:38:57.984Z,94956.00
2023-12-20T02:39:57.375Z,94954.00
2023-12-20T02:40:57.365Z,94954.00
2023-12-20T02:41:57.393Z,94954.00
2023-12-20T02:42:57.488Z,94958.00
2023-12-20T02:43:57.511Z,94962.00
2023-12-20T02:44:57.572Z,94961.00
2023-12-20T02:45:57.590Z,94956.00
2023-12-20T02:46:57.623Z,94950.00
2023-12-20T02:47:57.711Z,94948.00
2023-12-20T02:48:57.782Z,94942.00
2023-12-20T02:49:57.916Z,94938.00
2023-12-20T02:50:57.823Z,94932.00
2023-12-20T02:51:57.879Z,94934.00
2023-12-20T02:52:57.926Z,94934.00
2023-12-20T02:53:57.954Z,94934.00
2023-12-20T02:54:58.014Z,94933.00
2023-12-20T02:55:58.169Z,94934.00
2023-12-20T02:56:58.094Z,94933.00
2023-12-20T02:57:58.130Z,94933.00
2023-12-20T02:58:58.171Z,94932.00
2023-12-20T02:59:58.285Z,94930.00
2023-12-20T03:00:58.411Z,94930.00
2023-12-20T03:01:58.514Z,94927.00
2023-12-20T03:02:58.331Z,94925.00
2023-12-20T03:03:58.506Z,94926.00
2023-12-20T03:04:58.484Z,94928.00
2023-12-20T03:05:58.588Z,94930.00
2023-12-20T03:06:58.620Z,94929.00
2023-12-20T03:07:58.653Z,94928.00
2023-12-20T03:08:58.643Z,94927.00
2023-12-20T03:10:11.605Z,94929.00
2023-12-20T03:10:59.711Z,94927.00
2023-12-20T03:11:58.685Z,94926.00
2023-12-20T03:12:58.732Z,94929.00
2023-12-20T03:13:58.688Z,94934.00
2023-12-20T03:14:58.641Z,94932.00
2023-12-20T03:15:58.749Z,94932.00
2023-12-20T03:17:00.695Z,94931.00
2023-12-20T03:17:58.702Z,94932.00
2023-12-20T03:18:58.695Z,94933.00
2023-12-20T03:19:58.767Z,94933.00
2023-12-20T03:20:58.727Z,94930.00
2023-12-20T03:21:58.830Z,94930.00
2023-12-20T03:22:58.803Z,94927.00
2023-12-20T03:23:58.873Z,94926.00
2023-12-20T03:24:58.966Z,94926.00
2023-12-20T03:25:58.954Z,94925.00
2023-12-20T03:26:59.031Z,94924.00
2023-12-20T03:27:59.090Z,94926.00
2023-12-20T03:28:59.095Z,94926.00
2023-12-20T03:29:59.123Z,94930.00
2023-12-20T03:30:59.217Z,94928.00
2023-12-20T03:31:59.221Z,94924.00
2023-12-20T03:32:59.301Z,94925.00
2023-12-20T03:33:59.351Z,94927.00
2023-12-20T03:34:59.486Z,94928.00
2023-12-20T03:35:59.389Z,94927.00
2023-12-20T03:36:59.443Z,94929.00
2023-12-20T03:37:59.460Z,94932.00
2023-12-20T03:38:59.547Z,94932.00
2023-12-20T03:39:59.555Z,94932.00
2023-12-20T03:40:59.629Z,94930.00
2023-12-20T03:41:59.635Z,94929.00
2023-12-20T03:42:59.767Z,94929.00
2023-12-20T03:43:59.751Z,94932.00
2023-12-20T03:44:59.843Z,94935.00
2023-12-20T03:45:59.957Z,94939.00
2023-12-20T03:46:59.866Z,94942.00
2023-12-20T03:47:59.913Z,94944.00
2023-12-20T03:49:02.307Z,94940.00
2023-12-20T03:49:59.973Z,94938.00
2023-12-20T03:50:59.957Z,94946.00
2023-12-20T03:51:59.985Z,94952.00
2023-12-20T03:52:59.935Z,94956.00
2023-12-20T03:53:59.953Z,94955.00
2023-12-20T03:54:59.952Z,94952.00
2023-12-20T03:55:59.992Z,94951.00
2023-12-20T03:56:59.930Z,94952.00
2023-12-20T03:58:00.065Z,94954.00
2023-12-20T03:58:59.955Z,94952.00
2023-12-20T03:59:59.993Z,94950.00
2023-12-20T04:01:00.174Z,94948.00
2023-12-20T04:02:00.045Z,94943.00
2023-12-20T04:02:59.985Z,94942.00
2023-12-20T04:04:00.035Z,94944.00
2023-12-20T04:05:00.052Z,94942.00
2023-12-20T04:06:00.188Z,94947.00
2023-12-20T04:07:00.079Z,94947.00
2023-12-20T04:08:00.019Z,94948.00
2023-12-20T04:08:59.989Z,94949.00
2023-12-20T04:10:00.007Z,94945.00
2023-12-20T04:11:00.026Z,94945.00
2023-12-20T04:11:59.988Z,94942.00
2023-12-20T04:13:00.059Z,94935.00
2023-12-20T04:13:59.955Z,94931.00
2023-12-20T04:14:59.999Z,94931.00
2023-12-20T04:16:00.005Z,94930.00
2023-12-20T04:16:59.995Z,94929.00
2023-12-20T04:18:00.039Z,94930.00
2023-12-20T04:19:00.071Z,94928.00
2023-12-20T04:20:00.083Z,94930.00
2023-12-20T04:21:00.079Z,94928.00
2023-12-20T04:22:00.086Z,94930.00
2023-12-20T04:22:59.986Z,94930.00
2023-12-20T04:23:59.995Z,94931.00
2023-12-20T04:25:00.051Z,94929.00
2023-12-20T04:26:00.070Z,94925.00
2023-12-20T04:27:00.001Z,94924.00
2023-12-20T04:28:00.089Z,94923.00
2023-12-20T04:29:00.025Z,94927.00
2023-12-20T04:30:00.078Z,94930.00
2023-12-20T04:31:07.381Z,94931.00
2023-12-20T04:32:07.291Z,94931.00
2023-12-20T04:33:07.343Z,94927.00
2023-12-20T04:34:07.355Z,94922.00
2023-12-20T04:35:07.365Z,94919.00
2023-12-20T04:36:07.348Z,94920.00
2023-12-20T04:37:07.336Z,94926.00
2023-12-20T04:38:07.291Z,94934.00
2023-12-20T04:39:07.331Z,94938.00
2023-12-20T04:40:07.373Z,94941.00
2023-12-20T04:41:07.352Z,94944.00
2023-12-20T04:42:07.319Z,94947.00
2023-12-20T04:43:07.362Z,94949.00
2023-12-20T04:44:07.303Z,94952.00
2023-12-20T04:45:07.303Z,94949.00
2023-12-20T04:46:07.392Z,94953.00
2023-12-20T04:47:07.318Z,94950.00
2023-12-20T04:48:07.454Z,94952.00
2023-12-20T04:49:07.433Z,94954.00
2023-12-20T04:50:07.531Z,94957.00
2023-12-20T04:51:07.343Z,94955.00
2023-12-20T04:52:07.322Z,94958.00
2023-12-20T04:53:07.313Z,94959.00
2023-12-20T04:54:07.305Z,94959.00
2023-12-20T04:55:07.356Z,94961.00
2023-12-20T04:56:07.355Z,94962.00
2023-12-20T04:57:07.344Z,94964.00
2023-12-20T04:58:07.428Z,94966.00
2023-12-20T04:59:07.337Z,94968.00
2023-12-20T05:00:07.331Z,94970.00
2023-12-20T05:01:07.449Z,94969.00
2023-12-20T05:02:07.406Z,94968.00
2023-12-20T05:03:07.335Z,94967.00
2023-12-20T05:04:07.377Z,94967.00
2023-12-20T05:05:07.387Z,94965.00
2023-12-20T05:06:07.336Z,94967.00
2023-12-20T05:07:07.462Z,94968.00
2023-12-20T05:08:07.600Z,94968.00
2023-12-20T05:09:07.335Z,94969.00
2023-12-20T05:10:07.331Z,94969.00
2023-12-20T05:11:07.382Z,94972.00
2023-12-20T05:12:07.351Z,94974.00
2023-12-20T05:13:07.349Z,94972.00
2023-12-20T05:14:07.365Z,94973.00
2023-12-20T05:15:07.347Z,94976.00
2023-12-20T05:16:07.391Z,94977.00
2023-12-20T05:17:07.314Z,94977.00
2023-12-20T05:18:07.401Z,94977.00
2023-12-20T05:19:07.392Z,94978.00
2023-12-20T05:20:07.436Z,94977.00
2023-12-20T05:21:07.355Z,94980.00
2023-12-20T05:22:07.360Z,94981.00
2023-12-20T05:23:07.346Z,94985.00
2023-12-20T05:24:07.405Z,94989.00
2023-12-20T05:25:07.463Z,94991.00
2023-12-20T05:26:07.531Z,94997.00
2023-12-20T05:27:07.534Z,95001.00
2023-12-20T05:28:07.675Z,95006.00
2023-12-20T05:29:07.760Z,95009.00
2023-12-20T05:30:07.800Z,95011.00
2023-12-20T05:31:07.818Z,95008.00
2023-12-20T05:32:07.711Z,95008.00
2023-12-20T05:33:07.835Z,95007.00
2023-12-20T05:34:07.920Z,95007.00
2023-12-20T05:35:07.994Z,95012.00
2023-12-20T05:36:07.954Z,95016.00
2023-12-20T05:37:07.870Z,95018.00
2023-12-20T05:38:07.945Z,95021.00
2023-12-20T05:39:07.927Z,95027.00
2023-12-20T05:40:08.085Z,95032.00
2023-12-20T05:41:07.988Z,95036.00
2023-12-20T05:42:08.059Z,95039.00
2023-12-20T05:43:08.093Z,95039.00
2023-12-20T05:44:08.152Z,95042.00
2023-12-20T05:45:08.121Z,95046.00
2023-12-20T05:46:08.209Z,95052.00
2023-12-20T05:47:08.235Z,95056.00
2023-12-20T05:48:08.279Z,95064.00
2023-12-20T05:49:08.298Z,95068.00
2023-12-20T05:50:08.266Z,95067.00
2023-12-20T05:51:08.333Z,95070.00
2023-12-20T05:52:08.364Z,95073.00
2023-12-20T05:53:08.398Z,95074.00
2023-12-20T05:54:08.453Z,95078.00
2023-12-20T05:55:08.541Z,95080.00
2023-12-20T05:56:08.576Z,95078.00
2023-12-20T05:57:08.574Z,95074.00
2023-12-20T05:58:08.654Z,95069.00
2023-12-20T05:59:08.732Z,95063.00
2023-12-20T06:00:08.822Z,95060.00
2023-12-20T06:02:38.033Z,95056.00
2023-12-20T06:03:15.070Z,95060.00
2023-12-20T06:04:15.216Z,95061.00
2023-12-20T06:05:15.131Z,95069.00
2023-12-20T06:06:17.146Z,95072.00
2023-12-20T06:07:15.189Z,95079.00
2023-12-20T06:08:15.117Z,95082.00
2023-12-20T06:09:15.177Z,95076.00
2023-12-20T06:10:15.221Z,95074.00
2023-12-20T06:11:15.165Z,95071.00
2023-12-20T06:12:15.178Z,95072.00
2023-12-20T06:13:15.312Z,95069.00
2023-12-20T06:14:15.263Z,95068.00
2023-12-20T06:15:15.239Z,95065.00
2023-12-20T06:16:15.317Z,95067.00
2023-12-20T06:17:15.379Z,95068.00
2023-12-20T06:18:15.442Z,95073.00
2023-12-20T06:19:15.448Z,95074.00
2023-12-20T06:20:15.599Z,95072.00
2023-12-20T06:21:15.513Z,95069.00
2023-12-20T06:22:15.576Z,95076.00
2023-12-20T06:23:15.632Z,95077.00
2023-12-20T06:24:15.789Z,95083.00
2023-12-20T06:25:15.827Z,95084.00
2023-12-20T06:26:15.825Z,95087.00
2023-12-20T06:27:15.845Z,95087.00
2023-12-20T06:28:15.898Z,95087.00
2023-12-20T06:29:15.966Z,95086.00
2023-12-20T06:30:16.054Z,95084.00
2023-12-20T06:31:16.680Z,95085.00
2023-12-20T06:32:16.037Z,95089.00
2023-12-20T06:33:16.127Z,95094.00
2023-12-20T06:34:16.202Z,95099.00
2023-12-20T06:35:16.213Z,95104.00
2023-12-20T06:36:16.535Z,95104.00
2023-12-20T06:37:16.294Z,95102.00
2023-12-20T06:38:16.296Z,95100.00
2023-12-20T06:39:16.351Z,95095.00
2023-12-20T06:40:18.067Z,95097.00
2023-12-20T06:41:17.005Z,95096.00
2023-12-20T06:42:16.657Z,95096.00
2023-12-20T06:43:26.533Z,95095.00
2023-12-20T06:44:17.748Z,95095.00
2023-12-20T06:45:16.755Z,95093.00
2023-12-20T06:47:46.190Z,95094.00
2023-12-20T06:48:22.939Z,95091.00
2023-12-20T06:49:23.029Z,95092.00
2023-12-20T06:50:23.037Z,95089.00
2023-12-20T06:51:24.540Z,95089.00
2023-12-20T06:52:23.144Z,95086.00
2023-12-20T06:53:23.155Z,95084.00
2023-12-20T06:54:23.075Z,95081.00
2023-12-20T06:55:23.127Z,95078.00
2023-12-20T06:56:23.069Z,95079.00
2023-12-20T06:57:23.093Z,95080.00
2023-12-20T06:58:23.237Z,95079.00
2023-12-20T06:59:23.135Z,95079.00
2023-12-20T07:00:23.095Z,95082.00
2023-12-20T07:01:23.194Z,95084.00
2023-12-20T07:02:23.137Z,95089.00
2023-12-20T07:03:23.092Z,95091.00
2023-12-20T07:04:23.410Z,95091.00
2023-12-20T07:05:23.106Z,95092.00
2023-12-20T07:06:25.351Z,95086.00
2023-12-20T07:07:23.570Z,95086.00
2023-12-20T07:08:23.130Z,95085.00
2023-12-20T07:09:23.941Z,95085.00
2023-12-20T07:10:23.182Z,95086.00
2023-12-20T07:11:23.091Z,95087.00
2023-12-20T07:12:23.509Z,95086.00
2023-12-20T07:13:23.206Z,95084.00
2023-12-20T07:14:23.107Z,95084.00
2023-12-20T07:15:23.095Z,95087.00
2023-12-20T07:16:23.151Z,95089.00
2023-12-20T07:17:23.569Z,95093.00
2023-12-20T07:18:23.134Z,95095.00
2023-12-20T07:19:23.147Z,95100.00
2023-12-20T07:20:23.717Z,95104.00
2023-12-20T07:21:23.115Z,95110.00
2023-12-20T07:22:23.592Z,95115.00
2023-12-20T07:23:23.088Z,95120.00
2023-12-20T07:24:23.139Z,95119.00
2023-12-20T07:25:23.244Z,95124.00
2023-12-20T07:26:23.383Z,95121.00
2023-12-20T07:27:23.785Z,95127.00
2023-12-20T07:28:23.117Z,95129.00
2023-12-20T07:29:23.140Z,95134.00
2023-12-20T07:30:23.191Z,95139.00
2023-12-20T07:31:23.333Z,95142.00
2023-12-20T07:32:23.533Z,95145.00
2023-12-20T07:33:23.264Z,95144.00
2023-12-20T07:34:23.213Z,95144.00
2023-12-20T07:35:23.220Z,95146.00
2023-12-20T07:36:23.135Z,95152.00
2023-12-20T07:37:23.573Z,95157.00
2023-12-20T07:38:23.130Z,95158.00
2023-12-20T07:39:23.165Z,95160.00
2023-12-20T07:40:23.241Z,95163.00
2023-12-20T07:41:23.265Z,95163.00
2023-12-20T07:42:23.605Z,95160.00
2023-12-20T07:43:23.379Z,95159.00
2023-12-20T07:44:23.303Z,95164.00
2023-12-20T07:45:23.411Z,95165.00
2023-12-20T07:46:23.453Z,95165.00
2023-12-20T07:47:23.503Z,95168.00
2023-12-20T07:48:23.613Z,95165.00
2023-12-20T07:49:23.723Z,95167.00
2023-12-20T07:50:23.718Z,95167.00
2023-12-20T07:51:23.674Z,95169.00
2023-12-20T07:52:24.215Z,95172.00
2023-12-20T07:53:23.729Z,95171.00
2023-12-20T07:54:23.695Z,95167.00
2023-12-20T07:55:25.509Z,95166.00
2023-12-20T07:56:24.830Z,95167.00
2023-12-20T07:57:23.685Z,95169.00
2023-12-20T07:58:29.583Z,95167.00
2023-12-20T07:59:29.891Z,95166.00
2023-12-20T08:00:24.741Z,95166.00
2023-12-20T08:01:23.921Z,95165.00
2023-12-20T08:02:23.708Z,95166.00
2023-12-20T08:03:23.738Z,95165.00
2023-12-20T08:04:23.798Z,95159.00
2023-12-20T08:05:23.696Z,95154.00
2023-12-20T08:06:23.781Z,95152.00
2023-12-20T08:07:23.723Z,95154.00
2023-12-20T08:08:23.724Z,95156.00
2023-12-20T08:09:23.698Z,95158.00
2023-12-20T08:10:23.819Z,95158.00
2023-12-20T08:11:23.749Z,95158.00
2023-12-20T08:12:23.748Z,95153.00
2023-12-20T08:13:23.781Z,95151.00
2023-12-20T08:14:23.740Z,95143.00
2023-12-20T08:15:23.730Z,95138.00
2023-12-20T08:16:23.742Z,95133.00
2023-12-20T08:17:23.733Z,95135.00
2023-12-20T08:18:23.799Z,95135.00
2023-12-20T08:19:23.958Z,95137.00
2023-12-20T08:20:30.360Z,95135.00
2023-12-20T08:21:24.730Z,95135.00
2023-12-20T08:22:25.156Z,95131.00
2023-12-20T08:23:26.755Z,95126.00
2023-12-20T08:24:23.703Z,95127.00
2023-12-20T08:25:23.812Z,95127.00
2023-12-20T08:26:23.747Z,95127.00
2023-12-20T08:27:23.791Z,95129.00
2023-12-20T08:28:23.788Z,95130.00
2023-12-20T08:29:23.747Z,95133.00
2023-12-20T08:30:23.797Z,95139.00
2023-12-20T08:31:23.824Z,95145.00
2023-12-20T08:32:24.073Z,95145.00
2023-12-20T08:33:23.805Z,95151.00
2023-12-20T08:34:23.857Z,95150.00
2023-12-20T08:35:23.741Z,95149.00
2023-12-20T08:36:23.737Z,95152.00
2023-12-20T08:37:24.218Z,95151.00
2023-12-20T08:38:23.717Z,95154.00
2023-12-20T08:39:23.767Z,95155.00
2023-12-20T08:40:23.821Z,95163.00
2023-12-20T08:41:23.799Z,95165.00
2023-12-20T08:42:24.095Z,95172.00
2023-12-20T08:43:23.886Z,95175.00
2023-12-20T08:44:23.766Z,95176.00
2023-12-20T08:45:23.769Z,95180.00
2023-12-20T08:46:23.831Z,95181.00
2023-12-20T08:47:23.779Z,95179.00
2023-12-20T08:48:23.822Z,95180.00
2023-12-20T08:49:23.874Z,95174.00
2023-12-20T08:50:23.825Z,95176.00
2023-12-20T08:51:23.764Z,95171.00
2023-12-20T08:52:23.866Z,95168.00
2023-12-20T08:53:23.785Z,95170.00
2023-12-20T08:54:23.781Z,95172.00
2023-12-20T08:55:23.846Z,95173.00
2023-12-20T08:56:23.845Z,95172.00
2023-12-20T08:57:23.803Z,95166.00
2023-12-20T08:58:23.851Z,95165.00
2023-12-20T08:59:23.756Z,95165.00
2023-12-20T09:00:23.768Z,95168.00
2023-12-20T09:01:23.858Z,95171.00
2023-12-20T09:02:23.794Z,95175.00
2023-12-20T09:03:23.788Z,95182.00
2023-12-20T09:04:23.852Z,95184.00
2023-12-20T09:05:24.076Z,95184.00
2023-12-20T09:06:23.807Z,95184.00
2023-12-20T09:07:23.906Z,95187.00
2023-12-20T09:08:23.816Z,95185.00
2023-12-20T09:09:23.850Z,95188.00
2023-12-20T09:10:24.001Z,95185.00
2023-12-20T09:11:24.070Z,95185.00
2023-12-20T09:12:24.066Z,95188.00
2023-12-20T09:13:24.250Z,95189.00
2023-12-20T09:14:24.239Z,95189.00
2023-12-20T09:15:24.292Z,95192.00
2023-12-20T09:16:24.395Z,95192.00
2023-12-20T09:17:25.095Z,95193.00
2023-12-20T09:18:24.592Z,95191.00
2023-12-20T09:19:24.687Z,95189.00
2023-12-20T09:20:25.072Z,95191.00
2023-12-20T09:21:24.757Z,95193.00
2023-12-20T09:22:24.859Z,95196.00
2023-12-20T09:23:24.860Z,95194.00
2023-12-20T09:24:24.904Z,95195.00
2023-12-20T09:25:25.114Z,95194.00
2023-12-20T09:26:25.044Z,95193.00
2023-12-20T09:27:25.158Z,95194.00
2023-12-20T09:28:25.281Z,95198.00
2023-12-20T09:29:25.274Z,95199.00
2023-12-20T09:30:27.388Z,95203.00
2023-12-20T09:31:25.406Z,95203.00
2023-12-20T09:32:26.342Z,95202.00
2023-12-20T09:33:25.692Z,95202.00
2023-12-20T09:34:25.433Z,95199.00
2023-12-20T09:35:25.526Z,95195.00
2023-12-20T09:36:25.317Z,95197.00
2023-12-20T09:37:25.379Z,95197.00
2023-12-20T09:38:25.630Z,95194.00
2023-12-20T09:39:25.352Z,95197.00
2023-12-20T09:40:25.398Z,95197.00
2023-12-20T09:41:25.342Z,95197.00
2023-12-20T09:42:25.373Z,95198.00
2023-12-20T09:43:25.692Z,95194.00
2023-12-20T09:44:25.480Z,95193.00
2023-12-20T09:45:25.556Z,95194.00
2023-12-20T09:46:25.691Z,95191.00
2023-12-20T09:47:25.610Z,95189.00
2023-12-20T09:48:26.122Z,95188.00
2023-12-20T09:49:25.632Z,95188.00
2023-12-20T09:50:25.754Z,95182.00
2023-12-20T09:51:25.700Z,95182.00
2023-12-20T09:52:25.768Z,95183.00
2023-12-20T09:53:26.086Z,95180.00
2023-12-20T09:54:25.845Z,95178.00
2023-12-20T09:55:25.928Z,95178.00
2023-12-20T09:56:25.791Z,95174.00
2023-12-20T09:57:25.829Z,95175.00
2023-12-20T09:58:25.948Z,95170.00
2023-12-20T09:59:25.993Z,95164.00
2023-12-20T10:00:26.006Z,95157.00
2023-12-20T10:01:26.198Z,95151.00
2023-12-20T10:02:26.161Z,95154.00
2023-12-20T10:03:26.189Z,95155.00
2023-12-20T10:04:30.079Z,95153.00
2023-12-20T10:05:26.304Z,95156.00
2023-12-20T10:06:26.242Z,95160.00
2023-12-20T10:07:26.286Z,95162.00
2023-12-20T10:08:27.041Z,95161.00
2023-12-20T10:09:26.999Z,95158.00
2023-12-20T10:10:34.806Z,95151.00
2023-12-20T10:11:27.188Z,95150.00
2023-12-20T10:12:26.275Z,95151.00
2023-12-20T10:13:26.321Z,95152.00
2023-12-20T10:14:26.192Z,95152.00
2023-12-20T10:15:26.283Z,95149.00
2023-12-20T10:16:26.257Z,95146.00
2023-12-20T10:17:27.049Z,95148.00
2023-12-20T10:18:37.596Z,95147.00
2023-12-20T10:19:27.322Z,95150.00
2023-12-20T10:20:26.295Z,95146.00
2023-12-20T10:21:26.249Z,95149.00
2023-12-20T10:22:26.343Z,95144.00
2023-12-20T10:23:26.212Z,95142.00
2023-12-20T10:24:27.612Z,95143.00
2023-12-20T10:25:26.445Z,95148.00
2023-12-20T10:26:26.230Z,95148.00
2023-12-20T10:27:26.237Z,95148.00
2023-12-20T10:28:26.702Z,95148.00
2023-12-20T10:29:26.396Z,95148.00
2023-12-20T10:30:26.437Z,95144.00
2023-12-20T10:31:26.583Z,95142.00
2023-12-20T10:32:26.667Z,95138.00
2023-12-20T10:33:26.696Z,95137.00
2023-12-20T10:34:26.736Z,95137.00
2023-12-20T10:35:26.685Z,95137.00
2023-12-20T10:36:26.756Z,95134.00
2023-12-20T10:37:26.956Z,95130.00
2023-12-20T10:38:26.939Z,95124.00
2023-12-20T10:39:27.519Z,95121.00
2023-12-20T10:40:27.078Z,95118.00
2023-12-20T10:41:27.132Z,95115.00
2023-12-20T10:42:27.163Z,95113.00
2023-12-20T10:43:27.786Z,95112.00
2023-12-20T10:44:27.330Z,95114.00
2023-12-20T10:45:27.346Z,95109.00
2023-12-20T10:46:27.437Z,95108.00
2023-12-20T10:47:27.553Z,95106.00
2023-12-20T10:48:27.609Z,95104.00
2023-12-20T10:49:27.751Z,95105.00
2023-12-20T10:50:27.678Z,95103.00
2023-12-20T10:51:27.850Z,95105.00
2023-12-20T10:52:27.901Z,95105.00
2023-12-20T10:53:27.865Z,95104.00
2023-12-20T10:54:28.131Z,95104.00
2023-12-20T10:55:28.522Z,95102.00
2023-12-20T10:56:28.020Z,95096.00
2023-12-20T10:57:28.116Z,95093.00
2023-12-20T10:58:28.269Z,95090.00
2023-12-20T10:59:28.183Z,95086.00
2023-12-20T11:00:28.230Z,95087.00
2023-12-20T11:01:28.351Z,95088.00
2023-12-20T11:02:28.330Z,95089.00
2023-12-20T11:03:28.480Z,95090.00
2023-12-20T11:04:28.439Z,95092.00
2023-12-20T11:05:28.553Z,95090.00
2023-12-20T11:06:28.558Z,95089.00
2023-12-20T11:07:28.573Z,95090.00
2023-12-20T11:08:28.563Z,95092.00
2023-12-20T11:09:28.722Z,95093.00
2023-12-20T11:10:28.694Z,95093.00
2023-12-20T11:11:28.684Z,95091.00
2023-12-20T11:12:28.702Z,95091.00
2023-12-20T11:13:28.758Z,95090.00
2023-12-20T11:14:28.831Z,95089.00
2023-12-20T11:15:28.776Z,95091.00
2023-12-20T11:16:35.341Z,95086.00
2023-12-20T11:17:29.842Z,95084.00
2023-12-20T11:18:28.820Z,95080.00
2023-12-20T11:19:29.188Z,95080.00
2023-12-20T11:20:28.806Z,95080.00
2023-12-20T11:21:28.825Z,95081.00
2023-12-20T11:22:28.998Z,95077.00
2023-12-20T11:23:28.827Z,95079.00
2023-12-20T11:24:29.147Z,95081.00
2023-12-20T11:25:28.903Z,95081.00
2023-12-20T11:26:28.862Z,95082.00
2023-12-20T11:27:28.867Z,95084.00
2023-12-20T11:28:28.890Z,95080.00
2023-12-20T11:29:28.820Z,95080.00
2023-12-20T11:30:28.831Z,95081.00
2023-12-20T11:31:28.888Z,95083.00
2023-12-20T11:32:28.879Z,95084.00
2023-12-20T11:33:30.576Z,95083.00
2023-12-20T11:34:29.225Z,95081.00
2023-12-20T11:35:28.920Z,95077.00
2023-12-20T11:36:28.931Z,95075.00
2023-12-20T11:37:28.996Z,95074.00
2023-12-20T11:38:28.862Z,95074.00
2023-12-20T11:39:29.179Z,95072.00
2023-12-20T11:40:28.993Z,95072.00
2023-12-20T11:41:29.005Z,95070.00
2023-12-20T11:42:29.027Z,95065.00
2023-12-20T11:43:29.131Z,95060.00
2023-12-20T11:44:29.645Z,95058.00
2023-12-20T11:45:31.021Z,95057.00
2023-12-20T11:46:29.249Z,95059.00
2023-12-20T11:47:29.303Z,95060.00